Pagrindinis puslapis
METAR-TAF:

METAR-TAF

Oro uostai :

Antananaryvas, Madagaskaras

platuma: 18-48S, ilguma: 047-29E, Aukštis: 1279 m

Dabartinis oras

Ataskaita buvo paskelbta 10 minutes, ne 14:30 UTC
Vėjas 10 kt iš Rytų
Temperatūra 20°C
Drėgmė 43%
Slėgis 1021 hPa
Matomumas 10 km arba daugiau
nėra debesų žemiau 1500 m ir nėra kamuolinių lietaus debesų

METAR: FMMI 171430Z 09010KT CAVOK 20/07 Q1021 NOSIG

Laikas: 17:40 (14:40 UTC)

Prognozė

Ataskaita buvo paskelbta 3 valandos ir 40 minutes, ne 11:00 UTC
Prognozė galioja nuo 17 metu 12 UTC su 18 metu 18 UTC
Vėjas 4 kt nuo kintamojo kryptimis
Matomumas 10 km arba daugiau
Mažai debesys ne aukštis 2000 ft
Tikimybė 40%
nuo 18 metu 00 UTC su 18 metu 06 UTC
Matomumas: 0400 m
Su prošvaistėmis ne aukštis 400 ft
rūkas

TAF: FMMI 171100Z 1712/1818 VRB04KT 9999 FEW020 PROB40 1800/1806 0400 FG BKN004

Orai ataskaitas ir orų prognozės (METAR, TAF).

turimą stotys yra geltonos ir raudonos taškus žemėlapyje.

Perkelti pele per norėdami pamatyti stoties vardą.

Tada spustelėkite, norėdami matyti oro stebėjimo ir prognozės.

Norėdami pakeisti žemėlapį: spustelėkite ant žalios mygtukų su juodo kryžiaus žemyn,; žalią mygtuką su brūkšneliu, jei norite nutolinti; arba žalių rodyklių gretimoms žemėlapius.


METAR-TAF: